createdAt,value
2022-11-21T06:54:32.223Z,5.20
2022-11-21T07:24:45.693Z,4.50
2022-11-21T07:45:38.056Z,4.23
2022-11-21T08:09:16.688Z,4.53
2022-11-21T08:11:48.024Z,4.30
2022-11-21T08:14:23.104Z,4.07
2022-11-21T08:16:56.319Z,3.90
2022-11-21T08:19:33.296Z,3.87
2022-11-21T08:22:02.110Z,4.50
2022-11-21T08:24:32.162Z,4.23
2022-11-21T08:27:05.584Z,3.67
2022-11-21T08:29:36.543Z,4.10
2022-11-21T08:32:04.905Z,3.97
2022-11-21T08:34:35.792Z,4.03
2022-11-21T08:37:04.430Z,4.33
2022-11-21T08:39:34.411Z,4.70
2022-11-21T08:42:05.712Z,4.07
2022-11-21T08:44:37.284Z,4.30
2022-11-21T08:47:06.820Z,4.60
2022-11-21T08:49:36.784Z,4.10
2022-11-21T08:52:04.812Z,4.80
2022-11-21T08:54:33.872Z,4.53
2022-11-21T08:57:02.434Z,5.43
2022-11-21T08:59:33.016Z,5.00
2022-11-21T09:02:01.913Z,5.57
2022-11-21T09:04:30.900Z,6.13
2022-11-21T09:07:01.023Z,5.97
2022-11-21T09:09:29.588Z,6.50
2022-11-21T09:11:59.489Z,6.13
2022-11-21T09:14:47.095Z,7.53
2022-11-21T09:17:33.360Z,7.07
2022-11-21T09:20:01.139Z,7.83
2022-11-21T09:22:29.879Z,6.57
2022-11-21T09:24:57.892Z,7.17
2022-11-21T09:27:26.028Z,6.60
2022-11-21T09:29:54.506Z,6.63
2022-11-21T09:32:22.669Z,6.83
2022-11-21T09:34:50.601Z,6.63
2022-11-21T09:37:18.311Z,6.30
2022-11-21T09:39:46.574Z,7.00
2022-11-21T09:42:43.775Z,6.57
2022-11-21T09:45:14.031Z,6.87
2022-11-21T09:47:51.244Z,7.17
2022-11-21T09:50:29.369Z,6.83
2022-11-21T09:52:59.537Z,7.27
2022-11-21T09:55:43.137Z,7.67
2022-11-21T09:58:19.447Z,7.83
2022-11-21T10:00:47.255Z,7.80
2022-11-21T10:03:19.412Z,8.70
2022-11-21T10:05:57.877Z,8.67
2022-11-21T10:08:55.785Z,7.83
2022-11-21T10:12:10.808Z,8.00
2022-11-21T10:14:55.886Z,8.07
2022-11-21T10:17:40.853Z,8.20
2022-11-21T10:20:29.583Z,10.63
2022-11-21T10:23:30.357Z,8.83
2022-11-21T10:26:04.305Z,8.90
2022-11-21T10:29:10.110Z,8.83
2022-11-21T10:31:40.417Z,9.47
2022-11-21T10:34:18.327Z,9.17
2022-11-21T10:36:50.792Z,8.47
2022-11-21T10:39:33.680Z,8.70
2022-11-21T10:42:23.127Z,8.57
2022-11-21T10:45:09.943Z,9.00
2022-11-21T10:47:39.632Z,8.60
2022-11-21T10:50:09.383Z,8.23
2022-11-21T10:52:44.464Z,8.10
2022-11-21T10:55:13.268Z,8.47
2022-11-21T10:57:43.147Z,8.70
2022-11-21T11:00:13.046Z,8.67
2022-11-21T11:03:26.212Z,8.70
2022-11-21T11:05:59.313Z,8.03
2022-11-21T11:08:28.107Z,7.70
2022-11-21T11:11:07.881Z,7.77
2022-11-21T11:14:03.976Z,7.57
2022-11-21T11:16:41.261Z,8.07
2022-11-21T11:19:14.507Z,7.97
2022-11-21T11:21:41.153Z,7.07
2022-11-21T11:24:22.922Z,8.10
2022-11-21T11:26:53.221Z,7.90
2022-11-21T11:29:23.543Z,7.73
2022-11-21T11:31:54.276Z,7.20
2022-11-21T11:34:22.353Z,7.30
2022-11-21T11:36:55.930Z,7.53
2022-11-21T11:39:53.889Z,7.27
2022-11-21T11:42:45.117Z,6.73
2022-11-21T11:45:30.158Z,7.37
2022-11-21T11:48:04.765Z,8.00
2022-11-21T11:50:40.767Z,7.00
2022-11-21T11:53:26.540Z,6.80
2022-11-21T11:55:59.349Z,6.03
2022-11-21T11:58:44.714Z,6.67
2022-11-21T12:01:18.775Z,6.77
2022-11-21T12:03:52.013Z,6.53
2022-11-21T12:06:38.276Z,6.87
2022-11-21T12:09:34.757Z,6.47
2022-11-21T12:12:23.501Z,5.87
2022-11-21T12:15:36.855Z,6.77
2022-11-21T12:18:16.042Z,6.40
2022-11-21T12:21:11.292Z,6.37
2022-11-21T12:23:44.341Z,5.80
2022-11-21T12:26:20.473Z,6.27
2022-11-21T12:29:09.047Z,6.57
2022-11-21T12:32:05.710Z,6.27
2022-11-21T12:34:45.444Z,6.50
2022-11-21T12:37:44.940Z,6.20
2022-11-21T12:40:33.882Z,6.63
2022-11-21T12:43:29.758Z,6.53
2022-11-21T12:46:08.097Z,6.70
2022-11-21T12:49:24.541Z,6.50
2022-11-21T12:52:19.403Z,6.73
2022-11-21T12:55:17.881Z,6.97
2022-11-21T12:58:19.626Z,7.83
2022-11-21T13:01:01.901Z,7.67
2022-11-21T13:03:50.993Z,7.53
2022-11-21T13:06:29.011Z,7.27
2022-11-21T13:08:59.786Z,7.70
2022-11-21T13:11:52.364Z,7.70
2022-11-21T13:14:26.345Z,7.63
2022-11-21T13:17:18.225Z,7.23
2022-11-21T13:20:03.119Z,7.20
2022-11-21T13:22:36.890Z,8.10
2022-11-21T13:25:11.016Z,8.50
2022-11-21T13:27:42.201Z,10.00
2022-11-21T13:30:09.572Z,8.43
2022-11-21T13:32:47.790Z,9.20
2022-11-21T13:35:15.929Z,11.73
2022-11-21T13:37:55.438Z,11.00
2022-11-21T13:40:29.016Z,10.77
2022-11-21T13:43:34.188Z,10.37
2022-11-21T13:46:02.838Z,14.73
2022-11-21T13:48:30.620Z,10.27
2022-11-21T13:51:16.202Z,10.17
2022-11-21T13:54:04.220Z,13.63
2022-11-21T13:56:39.242Z,13.50
2022-11-21T13:59:45.527Z,13.73
2022-11-21T14:02:27.066Z,9.10
2022-11-21T14:05:04.949Z,8.53
2022-11-21T14:07:39.321Z,9.57
2022-11-21T14:10:30.131Z,8.47
2022-11-21T14:12:58.560Z,8.57
2022-11-21T14:15:32.699Z,7.90
2022-11-21T14:18:02.168Z,8.13
2022-11-21T14:20:48.855Z,7.87
2022-11-21T14:23:24.096Z,8.70
2022-11-21T14:25:57.701Z,9.03
2022-11-21T14:28:31.739Z,9.47
2022-11-21T14:31:10.731Z,8.03
2022-11-21T14:33:49.499Z,8.40
2022-11-21T14:36:21.882Z,8.43
2022-11-21T14:39:35.499Z,8.23
2022-11-21T14:41:57.165Z,8.83
2022-11-21T14:44:26.518Z,8.17
2022-11-21T14:47:24.674Z,9.17
2022-11-21T14:49:55.678Z,8.97
2022-11-21T14:52:32.796Z,8.80
2022-11-21T14:55:29.267Z,8.53
2022-11-21T14:57:52.220Z,9.60
2022-11-21T15:00:57.290Z,9.40
2022-11-21T15:03:21.055Z,9.77
2022-11-21T15:12:05.732Z,8.97
2022-11-21T15:14:54.487Z,9.00
2022-11-21T15:17:24.894Z,9.83
2022-11-21T15:20:20.230Z,8.60
2022-11-21T15:22:50.147Z,9.93
2022-11-21T15:25:24.410Z,9.07
2022-11-21T15:28:06.268Z,9.37
2022-11-21T15:30:34.783Z,9.73
2022-11-21T15:33:20.893Z,8.77
2022-11-21T15:35:57.261Z,9.53
2022-11-21T15:38:27.884Z,9.30
2022-11-21T15:41:02.219Z,10.13
2022-11-21T15:43:43.973Z,9.27
2022-11-21T15:46:37.971Z,9.13
2022-11-21T15:49:31.360Z,9.90
2022-11-21T15:54:41.640Z,9.17
2022-11-21T15:57:11.585Z,8.73
2022-11-21T15:57:12.592Z,9.10
2022-11-21T15:57:15.963Z,9.50
2022-11-21T15:59:38.747Z,9.33
2022-11-21T16:02:05.701Z,8.33
2022-11-21T16:04:32.459Z,9.13
2022-11-21T16:06:59.431Z,9.73
2022-11-21T16:09:26.327Z,11.93
2022-11-21T16:11:53.497Z,9.50
2022-11-21T16:14:21.127Z,9.93
2022-11-21T16:16:48.350Z,9.47
2022-11-21T16:19:15.971Z,9.83
2022-11-21T16:21:43.843Z,11.87
2022-11-21T16:24:11.019Z,12.93
2022-11-21T16:26:38.187Z,12.47
2022-11-21T16:29:05.907Z,12.40
2022-11-21T16:31:32.923Z,10.87
2022-11-21T16:34:00.751Z,10.77
2022-11-21T16:36:30.386Z,10.40
2022-11-21T16:39:01.915Z,11.53
2022-11-21T16:41:29.798Z,11.53
2022-11-21T16:43:57.823Z,9.40
2022-11-21T16:46:25.685Z,11.03
2022-11-21T16:48:59.547Z,12.77
2022-11-21T16:51:26.900Z,9.00
2022-11-21T16:53:54.666Z,8.93
2022-11-21T16:56:21.375Z,7.83
2022-11-21T16:58:49.303Z,8.77
2022-11-21T17:01:19.683Z,8.70
2022-11-21T17:03:48.431Z,8.60
2022-11-21T17:06:19.489Z,8.83
2022-11-21T17:08:48.275Z,8.40
2022-11-21T17:11:18.433Z,7.77
2022-11-21T17:13:47.484Z,9.30
2022-11-21T17:16:20.406Z,8.27
2022-11-21T17:18:49.359Z,8.00
2022-11-21T17:21:17.619Z,8.90
2022-11-21T17:23:48.147Z,8.90
2022-11-21T17:26:28.550Z,8.73
2022-11-21T17:29:01.316Z,9.27
2022-11-21T17:31:31.465Z,8.70
2022-11-21T17:34:05.948Z,8.87
2022-11-21T17:36:46.711Z,8.97
2022-11-21T17:39:22.128Z,8.80
2022-11-21T17:41:56.902Z,8.90
2022-11-21T17:44:26.661Z,8.57
2022-11-21T17:46:55.432Z,9.10
2022-11-21T17:49:24.211Z,8.80
2022-11-21T17:51:56.648Z,9.23
2022-11-21T17:54:31.317Z,8.97
2022-11-21T17:57:00.843Z,9.30
2022-11-21T17:59:29.124Z,9.80
2022-11-21T18:01:57.801Z,9.07
2022-11-21T18:04:32.508Z,9.57
2022-11-21T18:07:02.019Z,9.47
2022-11-21T18:09:32.117Z,9.90
2022-11-21T18:12:02.623Z,9.87
2022-11-21T18:14:31.600Z,9.50
2022-11-21T18:17:03.544Z,9.80
2022-11-21T18:19:33.097Z,9.40
2022-11-21T18:22:01.442Z,8.60
2022-11-21T18:24:30.248Z,8.67
2022-11-21T18:26:58.555Z,9.17
2022-11-21T18:29:36.141Z,8.63
2022-11-21T18:32:07.597Z,8.30
2022-11-21T18:37:39.468Z,8.77
2022-11-21T18:40:07.339Z,8.93
2022-11-21T18:42:35.489Z,9.13
2022-11-21T18:45:02.879Z,8.87
2022-11-21T18:47:30.167Z,9.63
2022-11-21T18:49:58.203Z,8.97
2022-11-21T18:52:25.643Z,8.70
2022-11-21T18:54:52.783Z,8.90
2022-11-21T18:57:20.046Z,8.03
2022-11-21T18:59:47.272Z,8.67
2022-11-21T19:02:14.471Z,8.40
2022-11-21T19:04:41.731Z,9.03
2022-11-21T19:07:08.811Z,9.17
2022-11-21T19:09:36.457Z,9.13
2022-11-21T19:12:06.646Z,8.53
2022-11-21T19:14:36.258Z,7.97
2022-11-21T19:17:04.147Z,8.77
2022-11-21T19:19:34.580Z,8.13
2022-11-21T19:22:04.808Z,8.10
2022-11-21T19:24:32.254Z,8.23
2022-11-21T19:26:59.463Z,10.37
2022-11-21T19:29:27.965Z,9.87
2022-11-21T19:31:56.429Z,9.70
2022-11-21T19:34:23.988Z,8.53
2022-11-21T19:36:51.537Z,8.67
2022-11-21T19:39:18.900Z,8.03
2022-11-21T19:41:48.998Z,9.10
2022-11-21T19:44:15.904Z,8.50
2022-11-21T19:46:45.391Z,8.27
2022-11-21T19:49:12.626Z,7.93
2022-11-21T19:51:42.090Z,7.50
2022-11-21T19:54:11.390Z,8.80
2022-11-21T19:56:39.052Z,8.33
2022-11-21T19:59:07.757Z,8.80
2022-11-21T20:01:35.299Z,7.87
2022-11-21T20:04:06.591Z,8.80
2022-11-21T20:06:40.099Z,8.43
2022-11-21T20:09:10.449Z,8.00
2022-11-21T20:11:39.612Z,8.97
2022-11-21T20:14:07.527Z,9.17
2022-11-21T20:16:37.330Z,8.47
2022-11-21T20:19:08.538Z,9.17
2022-11-21T20:21:36.077Z,8.77
2022-11-21T20:24:04.075Z,10.20
2022-11-21T20:26:31.872Z,9.20
2022-11-21T20:28:59.357Z,8.27
2022-11-21T20:31:29.186Z,9.90
2022-11-21T20:34:00.825Z,9.70
2022-11-21T20:36:30.518Z,10.17
2022-11-21T20:39:08.088Z,9.97
2022-11-21T20:41:38.999Z,9.50
2022-11-21T20:46:59.664Z,9.33
2022-11-21T20:49:32.838Z,9.43
2022-11-21T20:54:51.836Z,9.43
2022-11-21T21:00:25.710Z,9.70
2022-11-21T21:02:56.482Z,10.23
2022-11-21T21:08:27.765Z,9.97
2022-11-21T21:11:36.714Z,10.13
2022-11-21T21:14:05.746Z,9.70
2022-11-21T21:16:35.559Z,10.50
2022-11-21T21:19:07.811Z,11.03
2022-11-21T21:21:35.776Z,10.83
2022-11-21T21:24:06.700Z,10.90
2022-11-21T21:26:42.905Z,11.10
2022-11-21T21:29:17.682Z,11.40
2022-11-21T21:31:50.527Z,11.00
2022-11-21T21:34:22.769Z,10.80
2022-11-21T21:36:56.649Z,11.60
2022-11-21T21:39:25.881Z,11.63
2022-11-21T21:41:56.827Z,11.30
2022-11-21T21:44:32.761Z,10.90
2022-11-21T21:47:01.699Z,10.50
2022-11-21T21:49:48.616Z,11.97
2022-11-21T21:52:21.813Z,10.70
2022-11-21T21:54:49.097Z,12.07
2022-11-21T21:57:17.009Z,11.07
2022-11-21T21:59:48.612Z,11.07
2022-11-21T22:02:16.812Z,11.63
2022-11-21T22:04:49.152Z,11.33
2022-11-21T22:07:19.323Z,11.57
2022-11-21T22:09:47.396Z,12.83
2022-11-21T22:12:16.693Z,12.50
2022-11-21T22:14:44.965Z,11.83
2022-11-21T22:17:13.112Z,10.13
2022-11-21T22:19:40.637Z,10.27
2022-11-21T22:22:10.787Z,10.33
2022-11-21T22:24:39.898Z,11.03
2022-11-21T22:27:08.000Z,10.83
2022-11-21T22:29:35.852Z,11.87
2022-11-21T22:32:04.463Z,10.73
2022-11-21T22:34:33.318Z,11.50
2022-11-21T22:37:02.710Z,11.80
2022-11-21T22:39:30.685Z,12.43
2022-11-21T22:42:03.242Z,10.80
2022-11-21T22:44:30.998Z,10.17
2022-11-21T22:46:58.850Z,10.67
2022-11-21T22:49:26.985Z,11.83
2022-11-21T22:51:59.550Z,11.17
2022-11-21T22:54:29.399Z,11.67
2022-11-21T22:56:58.013Z,10.47
2022-11-21T22:59:25.884Z,12.07
2022-11-21T23:01:54.713Z,11.90
2022-11-21T23:04:22.738Z,10.93
2022-11-21T23:06:50.913Z,12.10
2022-11-21T23:09:19.175Z,12.43
2022-11-21T23:11:48.139Z,11.57
2022-11-21T23:14:16.199Z,11.00
2022-11-21T23:16:44.308Z,11.60
2022-11-21T23:19:12.542Z,12.33
2022-11-21T23:21:41.062Z,12.60
2022-11-21T23:24:11.577Z,12.20
2022-11-21T23:26:39.277Z,11.47
2022-11-21T23:29:09.065Z,12.47
2022-11-21T23:31:36.619Z,12.03
2022-11-21T23:34:05.304Z,13.70
2022-11-21T23:36:33.018Z,12.47
2022-11-21T23:39:01.080Z,11.47
2022-11-21T23:41:31.612Z,11.50
2022-11-21T23:44:02.682Z,12.80
2022-11-21T23:46:31.350Z,12.53
2022-11-21T23:49:00.067Z,11.30
2022-11-21T23:51:29.883Z,13.20
2022-11-21T23:53:57.651Z,13.37
2022-11-21T23:56:26.371Z,11.37
2022-11-21T23:58:54.559Z,11.50
